createdAt,value
2022-12-31T00:01:52.307Z,31.05
2022-12-31T00:04:21.810Z,29.15
2022-12-31T00:06:52.804Z,28.92
2022-12-31T00:09:22.269Z,29.95
2022-12-31T00:11:52.036Z,28.65
2022-12-31T00:14:21.577Z,28.70
2022-12-31T00:16:51.047Z,27.65
2022-12-31T00:19:20.463Z,27.38
2022-12-31T00:21:50.460Z,28.77
2022-12-31T00:24:21.080Z,26.48
2022-12-31T00:26:53.129Z,24.90
2022-12-31T00:29:22.165Z,28.02
2022-12-31T00:31:51.813Z,27.50
2022-12-31T00:34:20.632Z,27.00
2022-12-31T00:36:50.616Z,29.40
2022-12-31T00:39:21.269Z,30.70
2022-12-31T00:41:51.201Z,28.80
2022-12-31T00:44:20.406Z,30.63
2022-12-31T00:46:49.427Z,29.98
2022-12-31T00:49:18.771Z,28.55
2022-12-31T00:51:47.933Z,28.75
2022-12-31T00:54:16.658Z,30.02
2022-12-31T00:56:48.557Z,30.42
2022-12-31T00:59:18.801Z,30.85
2022-12-31T01:01:48.335Z,29.00
2022-12-31T01:04:19.535Z,29.40
2022-12-31T01:06:49.153Z,31.38
2022-12-31T01:09:18.526Z,31.60
2022-12-31T01:11:49.275Z,32.03
2022-12-31T01:14:19.548Z,33.75
2022-12-31T01:16:51.149Z,30.75
2022-12-31T01:19:21.848Z,29.58
2022-12-31T01:21:51.740Z,31.48
2022-12-31T01:24:21.839Z,31.38
2022-12-31T01:26:52.896Z,29.55
2022-12-31T01:29:22.365Z,30.45
2022-12-31T01:31:51.886Z,29.13
2022-12-31T01:34:21.456Z,29.17
2022-12-31T01:36:50.956Z,34.10
2022-12-31T01:39:19.868Z,30.75
2022-12-31T01:41:49.993Z,30.48
2022-12-31T01:44:37.524Z,30.15
2022-12-31T01:47:14.746Z,33.00
2022-12-31T01:52:17.816Z,29.42
2022-12-31T01:54:49.491Z,29.92
2022-12-31T01:57:19.051Z,30.30
2022-12-31T01:59:49.404Z,32.13
2022-12-31T02:02:20.663Z,27.15
2022-12-31T02:04:52.573Z,29.30
2022-12-31T02:07:21.679Z,28.88
2022-12-31T02:09:51.674Z,27.60
2022-12-31T02:12:21.158Z,31.70
2022-12-31T02:14:52.388Z,29.38
2022-12-31T02:17:28.553Z,29.70
2022-12-31T02:20:20.605Z,24.90
2022-12-31T02:23:01.185Z,24.13
2022-12-31T02:25:46.878Z,26.23
2022-12-31T02:28:22.039Z,24.55
2022-12-31T02:30:56.840Z,24.35
2022-12-31T02:33:30.317Z,22.45
2022-12-31T02:36:01.522Z,28.92
2022-12-31T02:38:31.648Z,23.52
2022-12-31T02:41:01.027Z,23.45
2022-12-31T02:43:30.097Z,27.20
2022-12-31T02:46:06.443Z,24.70
2022-12-31T02:51:12.493Z,25.15
2022-12-31T02:56:12.538Z,22.05
2022-12-31T02:59:08.502Z,24.83
2022-12-31T03:01:58.840Z,22.90
2022-12-31T03:04:36.504Z,27.90
2022-12-31T03:07:06.725Z,27.00
2022-12-31T03:09:37.080Z,27.60
2022-12-31T03:12:23.927Z,27.98
2022-12-31T03:14:53.793Z,24.02
2022-12-31T03:17:25.125Z,23.65
2022-12-31T03:20:20.077Z,21.25
2022-12-31T03:22:51.671Z,23.63
2022-12-31T03:25:35.026Z,22.05
2022-12-31T03:28:05.023Z,21.05
2022-12-31T03:30:34.945Z,20.63
2022-12-31T03:33:06.807Z,20.08
2022-12-31T03:35:37.713Z,22.38
2022-12-31T03:38:07.002Z,21.92
2022-12-31T03:40:39.453Z,20.50
2022-12-31T03:43:08.979Z,19.88
2022-12-31T03:45:39.473Z,19.85
2022-12-31T03:48:10.692Z,20.40
2022-12-31T03:50:40.006Z,19.58
2022-12-31T03:53:08.897Z,20.85
2022-12-31T03:55:38.178Z,19.48
2022-12-31T03:58:07.783Z,16.05
2022-12-31T04:00:36.879Z,18.08
2022-12-31T04:03:06.422Z,19.38
2022-12-31T04:05:37.302Z,18.23
2022-12-31T04:08:07.776Z,20.02
2022-12-31T04:10:38.868Z,19.88
2022-12-31T04:13:07.819Z,19.83
2022-12-31T04:15:36.534Z,18.67
2022-12-31T04:18:06.173Z,19.13
2022-12-31T04:20:36.371Z,18.85
2022-12-31T04:23:08.171Z,17.77
2022-12-31T04:25:37.588Z,17.15
2022-12-31T04:28:07.073Z,15.88
2022-12-31T04:30:36.094Z,16.40
2022-12-31T04:33:05.491Z,17.25
2022-12-31T04:35:34.902Z,17.77
2022-12-31T04:38:04.974Z,18.90
2022-12-31T04:40:35.857Z,17.92
2022-12-31T04:43:05.124Z,18.20
2022-12-31T04:45:34.796Z,17.90
2022-12-31T04:48:03.720Z,17.88
2022-12-31T04:50:33.479Z,20.48
2022-12-31T04:53:02.605Z,19.33
2022-12-31T04:55:32.557Z,20.38
2022-12-31T04:58:05.159Z,19.30
2022-12-31T05:00:36.020Z,19.33
2022-12-31T05:03:10.192Z,19.08
2022-12-31T05:05:42.819Z,19.58
2022-12-31T05:08:11.412Z,18.45
2022-12-31T05:10:43.320Z,16.98
2022-12-31T05:13:14.638Z,18.50
2022-12-31T05:15:44.885Z,17.80
2022-12-31T05:18:13.685Z,18.90
2022-12-31T05:20:42.653Z,18.95
2022-12-31T05:23:12.739Z,18.40
2022-12-31T05:25:41.680Z,18.50
2022-12-31T05:28:11.926Z,19.58
2022-12-31T05:30:43.600Z,17.65
2022-12-31T05:33:13.533Z,19.60
2022-12-31T05:35:42.872Z,19.00
2022-12-31T05:38:13.129Z,19.88
2022-12-31T05:40:42.829Z,18.95
2022-12-31T05:43:12.624Z,20.23
2022-12-31T05:45:44.339Z,20.98
2022-12-31T05:48:13.605Z,20.95
2022-12-31T05:50:42.818Z,21.23
2022-12-31T05:53:12.806Z,20.63
2022-12-31T05:55:41.678Z,18.38
2022-12-31T05:58:11.678Z,20.00
2022-12-31T06:00:42.007Z,19.45
2022-12-31T06:03:12.943Z,20.45
2022-12-31T06:05:43.425Z,20.83
2022-12-31T06:08:12.574Z,20.40
2022-12-31T06:10:42.927Z,21.48
2022-12-31T06:13:12.564Z,20.88
2022-12-31T06:15:41.496Z,20.08
2022-12-31T06:18:15.189Z,20.08
2022-12-31T06:20:44.388Z,20.17
2022-12-31T06:23:14.140Z,20.83
2022-12-31T06:25:42.895Z,23.77
2022-12-31T06:28:19.494Z,22.65
2022-12-31T06:30:49.436Z,22.33
2022-12-31T06:33:21.230Z,23.05
2022-12-31T06:35:50.325Z,22.85
2022-12-31T06:38:21.336Z,22.20
2022-12-31T06:40:50.877Z,22.13
2022-12-31T06:43:20.074Z,22.75
2022-12-31T06:45:48.665Z,20.90
2022-12-31T06:48:18.915Z,21.95
2022-12-31T06:50:50.043Z,23.13
2022-12-31T06:53:21.102Z,27.15
2022-12-31T06:55:50.400Z,25.60
2022-12-31T06:58:19.967Z,26.00
2022-12-31T07:00:52.758Z,27.83
2022-12-31T07:03:28.529Z,26.65
2022-12-31T07:06:00.095Z,27.45
2022-12-31T07:08:41.597Z,27.70
2022-12-31T07:11:15.743Z,27.10
2022-12-31T07:14:09.322Z,24.55
2022-12-31T07:16:45.494Z,26.63
2022-12-31T07:19:21.264Z,25.83
2022-12-31T07:21:53.087Z,25.93
2022-12-31T07:24:23.288Z,26.55
2022-12-31T07:27:00.686Z,26.65
2022-12-31T07:29:34.945Z,26.40
2022-12-31T07:32:09.486Z,25.45
2022-12-31T07:34:43.844Z,24.92
2022-12-31T07:37:16.466Z,25.48
2022-12-31T07:39:54.737Z,24.67
2022-12-31T07:45:00.859Z,22.20
2022-12-31T07:47:30.601Z,22.58
2022-12-31T07:50:01.864Z,23.88
2022-12-31T07:52:33.774Z,26.60
2022-12-31T07:55:02.049Z,26.48
2022-12-31T07:57:35.870Z,27.48
2022-12-31T08:00:07.444Z,24.08
2022-12-31T08:02:55.920Z,23.35
2022-12-31T08:05:26.595Z,23.67
2022-12-31T08:07:58.232Z,24.83
2022-12-31T08:10:30.746Z,23.70
2022-12-31T08:13:02.427Z,21.98
2022-12-31T08:15:31.782Z,23.23
2022-12-31T08:18:01.529Z,25.30
2022-12-31T08:20:32.666Z,25.02
2022-12-31T08:23:20.253Z,22.38
2022-12-31T08:25:58.743Z,19.70
2022-12-31T08:28:47.780Z,19.05
2022-12-31T08:31:19.126Z,17.42
2022-12-31T08:33:52.019Z,17.30
2022-12-31T08:36:27.281Z,18.52
2022-12-31T08:38:59.273Z,18.10
2022-12-31T08:41:31.055Z,18.70
2022-12-31T08:44:09.156Z,17.00
2022-12-31T08:46:40.803Z,16.85
2022-12-31T08:49:10.868Z,17.90
2022-12-31T08:51:40.043Z,18.17
2022-12-31T08:54:11.606Z,18.05
2022-12-31T08:56:50.632Z,18.77
2022-12-31T08:59:27.119Z,18.58
2022-12-31T09:02:03.791Z,17.05
2022-12-31T09:04:41.470Z,18.75
2022-12-31T09:07:12.166Z,17.33
2022-12-31T09:09:47.429Z,17.80
2022-12-31T09:12:21.187Z,18.77
2022-12-31T09:14:52.357Z,19.25
2022-12-31T09:17:48.143Z,18.83
2022-12-31T09:20:19.554Z,18.00
2022-12-31T09:22:48.742Z,19.67
2022-12-31T09:25:19.116Z,20.42
2022-12-31T09:28:07.155Z,20.30
2022-12-31T09:30:40.443Z,20.80
2022-12-31T09:33:12.490Z,23.42
2022-12-31T09:35:49.416Z,22.40
2022-12-31T09:38:35.052Z,20.48
2022-12-31T09:41:25.677Z,22.13
2022-12-31T09:44:29.051Z,22.88
2022-12-31T09:47:19.066Z,24.35
2022-12-31T09:50:28.698Z,22.77
2022-12-31T09:53:03.919Z,21.75
2022-12-31T09:55:35.855Z,22.17
2022-12-31T09:58:12.584Z,22.90
2022-12-31T10:03:26.713Z,25.65
2022-12-31T10:06:05.084Z,25.40
2022-12-31T10:08:40.361Z,25.58
2022-12-31T10:11:15.748Z,24.83
2022-12-31T10:13:49.664Z,20.42
2022-12-31T10:16:26.674Z,19.83
2022-12-31T10:19:14.861Z,19.38
2022-12-31T10:21:51.288Z,19.52
2022-12-31T10:24:34.976Z,18.65
2022-12-31T10:27:15.662Z,17.63
2022-12-31T10:29:49.103Z,17.13
2022-12-31T10:32:24.977Z,17.48
2022-12-31T10:35:02.733Z,17.33
2022-12-31T10:37:41.231Z,17.95
2022-12-31T10:40:24.388Z,17.65
2022-12-31T10:43:22.737Z,17.20
2022-12-31T10:46:09.865Z,15.95
2022-12-31T10:49:00.330Z,17.02
2022-12-31T10:51:45.519Z,16.10
2022-12-31T10:54:32.696Z,15.00
2022-12-31T10:57:09.851Z,15.20
2022-12-31T11:00:05.495Z,31.30
2022-12-31T11:02:52.161Z,18.23
2022-12-31T11:05:34.179Z,16.02
2022-12-31T11:08:13.908Z,15.50
2022-12-31T11:10:55.753Z,14.98
2022-12-31T11:13:43.432Z,15.93
2022-12-31T11:16:26.032Z,16.30
2022-12-31T11:18:59.182Z,15.77
2022-12-31T11:21:37.877Z,15.95
2022-12-31T11:24:18.626Z,15.52
2022-12-31T11:26:52.011Z,16.50
2022-12-31T11:29:30.725Z,16.52
2022-12-31T11:32:07.903Z,18.33
2022-12-31T11:34:57.766Z,19.00
2022-12-31T11:37:35.139Z,18.38
2022-12-31T11:40:16.855Z,17.85
2022-12-31T11:42:50.331Z,17.38
2022-12-31T11:45:28.643Z,18.50
2022-12-31T11:48:29.703Z,18.25
2022-12-31T11:50:57.207Z,20.20
2022-12-31T11:53:40.496Z,18.23
2022-12-31T11:56:14.004Z,19.08
2022-12-31T11:58:53.340Z,20.98
2022-12-31T12:01:24.834Z,20.90
2022-12-31T12:03:55.000Z,20.67
2022-12-31T12:06:27.178Z,20.88
2022-12-31T12:08:58.828Z,19.95
2022-12-31T12:11:29.085Z,20.35
2022-12-31T12:14:00.344Z,20.08
2022-12-31T12:16:29.829Z,20.38
2022-12-31T12:19:06.408Z,21.35
2022-12-31T12:21:35.211Z,21.75
2022-12-31T12:24:05.049Z,20.58
2022-12-31T12:26:36.296Z,19.83
2022-12-31T12:29:17.357Z,19.80
2022-12-31T12:31:56.178Z,17.73
2022-12-31T12:34:28.124Z,18.73
2022-12-31T12:36:57.115Z,17.15
2022-12-31T12:39:27.368Z,18.08
2022-12-31T12:42:03.788Z,17.83
2022-12-31T12:44:32.929Z,17.95
2022-12-31T12:47:03.359Z,18.00
2022-12-31T12:49:34.615Z,17.92
2022-12-31T12:52:10.834Z,18.30
2022-12-31T12:54:45.448Z,18.52
2022-12-31T12:57:18.664Z,19.35
2022-12-31T12:59:54.738Z,19.35
2022-12-31T13:02:38.956Z,18.70
2022-12-31T13:05:16.386Z,19.20
2022-12-31T13:07:56.592Z,20.13
2022-12-31T13:10:34.339Z,22.27
2022-12-31T13:13:24.962Z,20.85
2022-12-31T13:15:58.132Z,21.42
2022-12-31T13:18:32.849Z,20.33
2022-12-31T13:21:04.770Z,21.83
2022-12-31T13:23:39.987Z,21.35
2022-12-31T13:26:11.883Z,20.85
2022-12-31T13:28:43.039Z,20.65
2022-12-31T13:31:14.027Z,20.75
2022-12-31T13:33:44.760Z,21.75
2022-12-31T13:36:17.944Z,21.65
2022-12-31T13:38:47.403Z,21.50
2022-12-31T13:41:18.665Z,20.98
2022-12-31T13:43:51.340Z,21.88
2022-12-31T13:46:24.801Z,21.42
2022-12-31T13:48:55.446Z,20.85
2022-12-31T13:51:28.635Z,21.48
2022-12-31T13:54:01.954Z,21.58
2022-12-31T13:56:33.093Z,22.13
2022-12-31T13:59:03.173Z,21.58
2022-12-31T14:01:34.639Z,22.60
2022-12-31T14:04:06.024Z,21.88
2022-12-31T14:06:40.184Z,22.23
2022-12-31T14:09:10.532Z,22.30
2022-12-31T14:11:47.407Z,23.20
2022-12-31T14:14:22.020Z,21.88
2022-12-31T14:16:53.583Z,23.40
2022-12-31T14:19:33.202Z,23.63
2022-12-31T14:22:10.072Z,22.67
2022-12-31T14:24:44.307Z,23.15
2022-12-31T14:27:18.078Z,24.00
2022-12-31T14:29:49.650Z,27.25
2022-12-31T14:32:27.398Z,26.45
2022-12-31T14:35:00.385Z,28.88
2022-12-31T14:37:32.928Z,29.33
2022-12-31T14:40:08.094Z,28.50
2022-12-31T14:42:40.428Z,28.85
2022-12-31T14:45:19.297Z,28.48
2022-12-31T14:47:53.995Z,29.42
2022-12-31T14:50:24.016Z,29.42
2022-12-31T14:52:55.455Z,29.27
2022-12-31T14:55:29.234Z,28.40
2022-12-31T14:58:27.079Z,28.92
2022-12-31T15:00:54.365Z,29.35
2022-12-31T15:03:38.936Z,29.42
2022-12-31T15:06:28.962Z,29.38
2022-12-31T15:09:08.620Z,26.25
2022-12-31T15:11:53.370Z,25.70
2022-12-31T15:14:37.263Z,24.25
2022-12-31T15:17:12.334Z,26.27
2022-12-31T15:19:54.227Z,26.35
2022-12-31T15:22:29.163Z,26.25
2022-12-31T15:25:01.243Z,26.92
2022-12-31T15:27:33.155Z,25.50
2022-12-31T15:30:02.231Z,24.27
2022-12-31T15:32:36.388Z,30.88
2022-12-31T15:35:06.119Z,28.23
2022-12-31T15:37:36.737Z,31.67
2022-12-31T15:40:25.960Z,32.95
2022-12-31T15:42:56.747Z,34.85
2022-12-31T15:45:27.941Z,35.53
2022-12-31T15:47:57.696Z,39.30
2022-12-31T15:50:27.197Z,32.47
2022-12-31T15:53:05.414Z,28.05
2022-12-31T15:55:44.526Z,25.65
2022-12-31T15:58:14.403Z,25.73
2022-12-31T16:00:54.714Z,25.48
2022-12-31T16:03:25.874Z,24.42
2022-12-31T16:05:57.102Z,24.77
2022-12-31T16:08:27.843Z,25.45
2022-12-31T16:10:59.080Z,25.85
2022-12-31T16:13:29.860Z,25.42
2022-12-31T16:16:03.403Z,24.88
2022-12-31T16:18:38.324Z,27.48
2022-12-31T16:21:07.753Z,26.85
2022-12-31T16:23:50.511Z,27.00
2022-12-31T16:26:20.949Z,28.20
2022-12-31T16:28:50.187Z,25.23
2022-12-31T16:31:20.175Z,27.30
2022-12-31T16:33:49.285Z,27.27
2022-12-31T16:36:21.142Z,27.60
2022-12-31T16:38:49.892Z,26.65
2022-12-31T16:41:19.682Z,27.02
2022-12-31T16:43:50.732Z,24.05
2022-12-31T16:46:26.290Z,25.63
2022-12-31T16:48:59.721Z,25.90
2022-12-31T16:51:30.503Z,31.40
2022-12-31T16:54:00.042Z,28.98
2022-12-31T16:56:33.266Z,27.70
2022-12-31T16:59:04.931Z,28.40
2022-12-31T17:01:38.436Z,27.02
2022-12-31T17:04:10.428Z,29.33
2022-12-31T17:06:38.741Z,41.53
2022-12-31T17:09:14.254Z,38.50
2022-12-31T17:11:48.364Z,37.33
2022-12-31T17:14:18.750Z,38.90
2022-12-31T17:17:05.158Z,37.95
2022-12-31T17:19:38.938Z,37.58
2022-12-31T17:22:10.456Z,39.65
2022-12-31T17:24:39.897Z,40.30
2022-12-31T17:27:09.947Z,41.33
2022-12-31T17:29:41.058Z,38.35
2022-12-31T17:32:28.213Z,39.05
2022-12-31T17:34:56.645Z,41.35
2022-12-31T17:37:26.944Z,45.38
2022-12-31T17:40:17.071Z,45.78
2022-12-31T17:42:47.708Z,47.05
2022-12-31T17:45:21.332Z,45.95
2022-12-31T17:47:52.767Z,44.25
2022-12-31T17:50:30.677Z,43.45
2022-12-31T17:53:05.467Z,40.65
2022-12-31T17:55:34.571Z,37.17
2022-12-31T17:58:04.864Z,42.08
2022-12-31T18:00:34.900Z,46.97
2022-12-31T18:03:03.370Z,42.67
2022-12-31T18:05:32.469Z,42.35
2022-12-31T18:08:01.241Z,42.08
2022-12-31T18:10:34.193Z,40.28
2022-12-31T18:13:04.931Z,40.33
2022-12-31T18:15:34.896Z,42.42
2022-12-31T18:18:03.757Z,40.13
2022-12-31T18:20:32.288Z,44.92
2022-12-31T18:23:00.580Z,43.55
2022-12-31T18:25:29.071Z,44.60
2022-12-31T18:27:58.072Z,44.78
2022-12-31T18:30:27.558Z,45.80
2022-12-31T18:32:57.693Z,47.85
2022-12-31T18:36:06.584Z,46.38
2022-12-31T18:38:15.629Z,44.50
2022-12-31T18:40:46.853Z,45.63
2022-12-31T18:43:16.834Z,45.05
2022-12-31T18:45:45.543Z,46.40
2022-12-31T18:48:16.713Z,49.38
2022-12-31T18:50:45.607Z,54.80
2022-12-31T18:53:16.705Z,53.20
2022-12-31T18:55:47.732Z,54.63
2022-12-31T18:58:16.677Z,55.75
2022-12-31T19:00:46.039Z,58.10
2022-12-31T19:03:17.903Z,55.88
2022-12-31T19:05:49.982Z,55.05
2022-12-31T19:08:18.744Z,58.10
2022-12-31T19:10:48.388Z,55.63
2022-12-31T19:13:17.692Z,57.35
2022-12-31T19:15:48.018Z,61.40
2022-12-31T19:18:18.345Z,58.78
2022-12-31T19:20:47.229Z,54.85
2022-12-31T19:23:16.592Z,54.30
2022-12-31T19:25:45.211Z,55.88
2022-12-31T19:28:16.851Z,52.58
2022-12-31T19:30:45.947Z,51.10
2022-12-31T19:33:15.232Z,52.40
2022-12-31T19:35:46.147Z,50.22
2022-12-31T19:38:16.794Z,49.55
2022-12-31T19:40:45.760Z,45.45
2022-12-31T19:43:15.705Z,44.08
2022-12-31T19:45:45.589Z,48.05
2022-12-31T19:48:15.071Z,46.97
2022-12-31T19:50:46.877Z,44.67
2022-12-31T19:53:22.046Z,43.78
2022-12-31T19:55:51.016Z,41.55
2022-12-31T19:58:20.609Z,42.60
2022-12-31T20:00:55.876Z,43.47
2022-12-31T20:03:34.174Z,43.58
2022-12-31T20:06:06.028Z,40.38
2022-12-31T20:08:34.560Z,40.72
2022-12-31T20:11:08.972Z,39.97
2022-12-31T20:13:37.737Z,39.80
2022-12-31T20:16:07.381Z,39.60
2022-12-31T20:18:37.630Z,35.90
2022-12-31T20:21:10.660Z,35.85
2022-12-31T20:23:39.563Z,36.08
2022-12-31T20:26:08.625Z,35.08
2022-12-31T20:28:37.415Z,36.28
2022-12-31T20:31:06.878Z,36.80
2022-12-31T20:33:35.206Z,37.22
2022-12-31T20:36:04.817Z,34.65
2022-12-31T20:38:35.103Z,33.30
2022-12-31T20:41:07.168Z,35.35
2022-12-31T20:43:36.079Z,39.05
2022-12-31T20:46:12.585Z,36.65
2022-12-31T20:48:43.943Z,35.33
2022-12-31T20:51:13.280Z,33.97
2022-12-31T20:53:46.574Z,34.00
2022-12-31T20:56:15.244Z,32.10
2022-12-31T20:58:43.721Z,30.52
2022-12-31T21:01:12.955Z,31.00
2022-12-31T21:06:31.545Z,29.13
2022-12-31T21:09:02.475Z,32.10
2022-12-31T21:11:48.286Z,33.55
2022-12-31T21:14:16.715Z,32.63
2022-12-31T21:16:45.505Z,32.55
2022-12-31T21:19:14.527Z,27.63
2022-12-31T21:21:42.999Z,27.23
2022-12-31T21:24:17.458Z,29.20
2022-12-31T21:26:49.266Z,30.10
2022-12-31T21:29:17.573Z,26.90
2022-12-31T21:31:45.867Z,25.15
2022-12-31T21:34:14.170Z,27.73
2022-12-31T21:36:42.933Z,25.73
2022-12-31T21:39:13.097Z,27.52
2022-12-31T21:41:54.422Z,28.25
2022-12-31T21:44:23.679Z,26.48
2022-12-31T21:47:33.258Z,24.08
2022-12-31T21:49:44.103Z,23.17
2022-12-31T21:52:30.488Z,25.02
2022-12-31T21:55:18.233Z,24.80
2022-12-31T21:58:24.323Z,31.27
2022-12-31T22:00:52.710Z,25.40
2022-12-31T22:03:28.069Z,25.00
2022-12-31T22:06:00.885Z,27.98
2022-12-31T22:08:30.663Z,28.33
2022-12-31T22:11:00.385Z,23.17
2022-12-31T22:13:29.254Z,22.35
2022-12-31T22:16:04.779Z,21.80
2022-12-31T22:18:35.822Z,21.23
2022-12-31T22:21:05.362Z,20.63
2022-12-31T22:23:34.531Z,20.77
2022-12-31T22:26:04.584Z,25.67
2022-12-31T22:28:39.021Z,22.75
2022-12-31T22:31:08.431Z,21.33
2022-12-31T22:33:36.906Z,20.45
2022-12-31T22:36:06.803Z,20.67
2022-12-31T22:38:36.388Z,19.70
2022-12-31T22:41:07.905Z,21.10
2022-12-31T22:43:37.213Z,43.42
2022-12-31T22:46:11.974Z,22.77
2022-12-31T22:48:41.004Z,21.02
2022-12-31T22:51:10.189Z,22.38
2022-12-31T22:53:39.778Z,23.58
2022-12-31T22:56:09.754Z,24.55
2022-12-31T22:58:38.467Z,23.52
2022-12-31T23:01:07.355Z,24.20
2022-12-31T23:03:35.920Z,24.35
2022-12-31T23:06:04.277Z,23.17
2022-12-31T23:08:33.388Z,21.83
2022-12-31T23:11:00.866Z,23.50
2022-12-31T23:13:50.886Z,24.10
2022-12-31T23:16:36.982Z,21.60
2022-12-31T23:19:23.423Z,21.50
2022-12-31T23:22:09.370Z,20.17
2022-12-31T23:24:38.308Z,20.37
2022-12-31T23:27:07.827Z,20.27
2022-12-31T23:29:46.212Z,22.48
2022-12-31T23:32:15.508Z,22.63
2022-12-31T23:34:45.020Z,22.65
2022-12-31T23:37:14.057Z,21.52
2022-12-31T23:39:43.524Z,28.20
2022-12-31T23:42:12.275Z,37.38
2022-12-31T23:44:42.551Z,44.58
2022-12-31T23:47:11.611Z,47.42
2022-12-31T23:49:40.252Z,40.45
2022-12-31T23:52:08.619Z,40.28
2022-12-31T23:54:40.118Z,36.50
2022-12-31T23:57:08.721Z,33.63
2022-12-31T23:59:38.049Z,32.95
